createdAt,value
2017-09-02T00:01:45.754Z,94732.23
2017-09-02T00:04:13.286Z,94733.18
2017-09-02T00:06:41.016Z,94726.03
2017-09-02T00:09:08.678Z,94729.64
2017-09-02T00:11:36.256Z,94733.43
2017-09-02T00:14:04.921Z,94725.55
2017-09-02T00:16:32.515Z,94728.17
2017-09-02T00:19:00.309Z,94730.23
2017-09-02T00:21:27.840Z,94730.14
2017-09-02T00:23:55.649Z,94726.75
2017-09-02T00:26:23.349Z,94733.33
2017-09-02T00:28:50.920Z,94728.97
2017-09-02T00:31:18.571Z,94722.98
2017-09-02T00:33:46.345Z,94729.00
2017-09-02T00:36:14.026Z,94731.88
2017-09-02T00:38:41.606Z,94734.31
2017-09-02T00:41:09.166Z,94716.17
2017-09-02T00:43:36.913Z,94735.48
2017-09-02T00:46:04.461Z,94733.27
2017-09-02T00:48:31.980Z,94733.27
2017-09-02T00:50:59.549Z,94734.81
2017-09-02T00:53:27.107Z,94736.49
2017-09-02T00:55:54.714Z,94737.28
2017-09-02T00:58:22.278Z,94739.27
2017-09-02T01:00:49.905Z,94742.59
2017-09-02T01:03:18.743Z,94734.20
2017-09-02T01:05:46.441Z,94742.50
2017-09-02T01:08:13.995Z,94751.77
2017-09-02T01:10:42.343Z,94754.05
2017-09-02T01:13:09.915Z,94752.37
2017-09-02T01:15:37.484Z,94750.69
2017-09-02T01:18:05.028Z,94748.06
2017-09-02T01:20:32.597Z,94751.26
2017-09-02T01:23:00.126Z,94751.67
2017-09-02T01:25:27.730Z,94751.34
2017-09-02T01:27:55.585Z,94758.13
2017-09-02T01:30:23.131Z,94753.49
2017-09-02T01:32:50.763Z,94768.62
2017-09-02T01:35:19.613Z,94758.86
2017-09-02T01:37:47.297Z,94766.75
2017-09-02T01:40:14.902Z,94758.59
2017-09-02T01:42:42.472Z,94755.39
2017-09-02T01:45:10.050Z,94758.97
2017-09-02T01:47:37.777Z,94765.83
2017-09-02T01:50:05.351Z,94762.28
2017-09-02T01:52:33.241Z,94763.39
2017-09-02T01:55:00.805Z,94771.36
2017-09-02T01:57:28.354Z,94771.20
2017-09-02T01:59:55.907Z,94775.81
2017-09-02T02:02:24.205Z,94781.86
2017-09-02T02:04:51.793Z,94782.08
2017-09-02T02:07:19.413Z,94772.23
2017-09-02T02:09:47.262Z,94758.90
2017-09-02T02:12:15.072Z,94784.59
2017-09-02T02:14:42.813Z,94775.16
2017-09-02T02:17:10.685Z,94785.36
2017-09-02T02:19:38.547Z,94781.42
2017-09-02T02:22:06.187Z,94784.03
2017-09-02T02:24:33.698Z,94784.81
2017-09-02T02:27:01.488Z,94777.06
2017-09-02T02:29:29.140Z,94771.07
2017-09-02T02:31:57.845Z,94767.09
2017-09-02T02:34:25.729Z,94768.98
2017-09-02T02:36:53.257Z,94770.50
2017-09-02T02:39:21.104Z,94779.20
2017-09-02T02:41:48.660Z,94776.00
2017-09-02T02:44:16.217Z,94774.19
2017-09-02T02:46:43.729Z,94779.28
2017-09-02T02:49:11.241Z,94776.41
2017-09-02T02:51:38.781Z,94776.22
2017-09-02T02:54:06.321Z,94778.74
2017-09-02T02:56:33.865Z,94782.13
2017-09-02T02:59:01.429Z,94782.53
2017-09-02T03:01:29.189Z,94774.19
2017-09-02T03:03:56.753Z,94787.93
2017-09-02T03:06:24.331Z,94791.70
2017-09-02T03:08:51.868Z,94788.91
2017-09-02T03:11:19.399Z,94800.80
2017-09-02T03:13:46.946Z,94797.98
2017-09-02T03:16:14.513Z,94793.05
2017-09-02T03:18:42.108Z,94794.97
2017-09-02T03:21:09.657Z,94798.94
2017-09-02T03:23:37.218Z,94781.31
2017-09-02T03:26:04.777Z,94795.24
2017-09-02T03:28:32.598Z,94794.81
2017-09-02T03:31:00.178Z,94797.49
2017-09-02T03:33:27.693Z,94800.53
2017-09-02T03:35:55.283Z,94799.98
2017-09-02T03:38:22.815Z,94799.42
2017-09-02T03:40:50.330Z,94805.27
2017-09-02T03:43:17.903Z,94803.19
2017-09-02T03:45:45.531Z,94795.27
2017-09-02T03:48:13.077Z,94798.50
2017-09-02T03:50:41.428Z,94798.84
2017-09-02T03:53:08.977Z,94797.73
2017-09-02T03:55:36.977Z,94804.22
2017-09-02T03:58:04.491Z,94805.73
2017-09-02T04:00:32.007Z,94803.45
2017-09-02T04:02:59.754Z,94801.04
2017-09-02T04:05:27.310Z,94803.48
2017-09-02T04:07:54.874Z,94799.38
2017-09-02T04:10:22.437Z,94806.35
2017-09-02T04:12:49.958Z,94797.41
2017-09-02T04:15:17.734Z,94804.02
2017-09-02T04:17:45.602Z,94804.52
2017-09-02T04:20:13.174Z,94816.83
2017-09-02T04:22:40.744Z,94819.35
2017-09-02T04:25:08.279Z,94821.80
2017-09-02T04:27:35.800Z,94826.21
2017-09-02T04:30:04.467Z,94813.98
2017-09-02T04:32:32.037Z,94828.55
2017-09-02T04:34:59.621Z,94823.53
2017-09-02T04:37:27.147Z,94829.66
2017-09-02T04:39:54.723Z,94830.95
2017-09-02T04:42:22.231Z,94823.47
2017-09-02T04:44:49.779Z,94822.75
2017-09-02T04:47:17.518Z,94821.17
2017-09-02T04:49:45.163Z,94829.88
2017-09-02T04:52:12.755Z,94823.74
2017-09-02T04:54:40.339Z,94829.31
2017-09-02T04:57:08.001Z,94817.17
2017-09-02T04:59:35.527Z,94825.44
2017-09-02T05:02:03.072Z,94825.06
2017-09-02T05:04:30.629Z,94837.53
2017-09-02T05:06:58.172Z,94830.48
2017-09-02T05:09:25.698Z,94834.94
2017-09-02T05:11:53.269Z,94834.58
2017-09-02T05:14:20.812Z,94832.39
2017-09-02T05:16:48.489Z,94828.23
2017-09-02T05:19:16.384Z,94819.08
2017-09-02T05:21:43.903Z,94837.11
2017-09-02T05:24:11.463Z,94840.17
2017-09-02T05:26:38.990Z,94836.76
2017-09-02T05:29:06.529Z,94838.98
2017-09-02T05:31:34.364Z,94828.21
2017-09-02T05:34:01.873Z,94835.78
2017-09-02T05:36:29.475Z,94832.30
2017-09-02T05:38:57.093Z,94835.69
2017-09-02T05:41:24.656Z,94842.69
2017-09-02T05:43:52.221Z,94833.11
2017-09-02T05:46:19.734Z,94835.39
2017-09-02T05:48:47.276Z,94834.76
2017-09-02T05:51:15.017Z,94836.22
2017-09-02T05:53:42.599Z,94831.03
2017-09-02T05:56:10.188Z,94833.03
2017-09-02T05:58:37.849Z,94839.63
2017-09-02T06:01:05.388Z,94841.27
2017-09-02T06:03:32.974Z,94840.86
2017-09-02T06:06:00.550Z,94840.64
2017-09-02T06:08:28.107Z,94844.73
2017-09-02T06:10:55.737Z,94841.28
2017-09-02T06:13:23.282Z,94843.84
2017-09-02T06:15:51.078Z,94838.05
2017-09-02T06:18:18.637Z,94841.70
2017-09-02T06:20:46.153Z,94844.70
2017-09-02T06:23:13.759Z,94849.77
2017-09-02T06:25:41.308Z,94850.28
2017-09-02T06:28:08.912Z,94848.37
2017-09-02T06:30:36.709Z,94845.84
2017-09-02T06:33:04.250Z,94849.97
2017-09-02T06:35:31.786Z,94841.64
2017-09-02T06:38:01.868Z,94851.94
2017-09-02T06:40:29.405Z,94851.17
2017-09-02T06:42:56.955Z,94851.20
2017-09-02T06:45:24.467Z,94850.38
2017-09-02T06:47:51.982Z,94850.38
2017-09-02T06:50:19.845Z,94863.62
2017-09-02T06:52:47.482Z,94866.28
2017-09-02T06:55:15.156Z,94855.59
2017-09-02T06:57:42.762Z,94859.30
2017-09-02T07:00:10.336Z,94856.98
2017-09-02T07:02:37.916Z,94858.94
2017-09-02T07:05:05.574Z,94855.03
2017-09-02T07:07:33.092Z,94857.98
2017-09-02T07:10:00.705Z,94853.03
2017-09-02T07:12:28.634Z,94845.42
2017-09-02T07:14:56.159Z,94856.02
2017-09-02T07:17:23.697Z,94860.13
2017-09-02T07:19:51.268Z,94859.91
2017-09-02T07:22:18.840Z,94862.30
2017-09-02T07:24:46.423Z,94857.89
2017-09-02T07:27:14.158Z,94862.96
2017-09-02T07:29:41.700Z,94864.19
2017-09-02T07:32:09.217Z,94859.05
2017-09-02T07:34:36.937Z,94860.20
2017-09-02T07:37:04.462Z,94860.16
2017-09-02T07:39:32.025Z,94857.66
2017-09-02T07:41:59.547Z,94858.53
2017-09-02T07:44:27.103Z,94853.16
2017-09-02T07:46:54.655Z,94854.30
2017-09-02T07:49:22.268Z,94843.50
2017-09-02T07:51:49.960Z,94853.70
2017-09-02T07:54:17.541Z,94856.03
2017-09-02T07:56:45.289Z,94843.88
2017-09-02T07:59:12.862Z,94846.44
2017-09-02T08:01:40.411Z,94847.91
2017-09-02T08:04:08.051Z,94845.03
2017-09-02T08:06:35.550Z,94837.61
2017-09-02T08:09:03.122Z,94835.66
2017-09-02T08:11:30.702Z,94834.48
2017-09-02T08:13:58.972Z,94833.37
2017-09-02T08:16:26.563Z,94823.02
2017-09-02T08:18:54.117Z,94832.19
2017-09-02T08:21:21.703Z,94827.84
2017-09-02T08:23:49.269Z,94830.85
2017-09-02T08:26:18.509Z,94831.50
2017-09-02T08:28:46.114Z,94826.05
2017-09-02T08:31:13.701Z,94827.88
2017-09-02T08:33:41.558Z,94823.81
2017-09-02T08:36:09.424Z,94821.51
2017-09-02T08:38:37.071Z,94826.05
2017-09-02T08:41:04.600Z,94819.27
2017-09-02T08:43:32.176Z,94815.64
2017-09-02T08:45:59.877Z,94816.41
2017-09-02T08:48:27.380Z,94812.78
2017-09-02T08:50:54.987Z,94808.41
2017-09-02T08:53:22.554Z,94811.78
2017-09-02T08:55:50.100Z,94802.03
2017-09-02T08:58:18.617Z,94798.56
2017-09-02T09:00:46.492Z,94796.05
2017-09-02T09:03:14.373Z,94793.23
2017-09-02T09:05:41.911Z,94789.19
2017-09-02T09:08:09.446Z,94777.45
2017-09-02T09:10:37.103Z,94771.05
2017-09-02T09:13:04.664Z,94770.09
2017-09-02T09:15:32.337Z,94775.59
2017-09-02T09:17:59.942Z,94778.59
2017-09-02T09:20:27.460Z,94762.96
2017-09-02T09:22:54.974Z,94769.25
2017-09-02T09:25:22.513Z,94759.50
2017-09-02T09:27:50.082Z,94763.00
2017-09-02T09:30:18.124Z,94749.98
2017-09-02T09:32:45.651Z,94749.62
2017-09-02T09:35:13.400Z,94741.89
2017-09-02T09:37:40.999Z,94747.13
2017-09-02T09:40:08.522Z,94746.70
2017-09-02T09:42:36.103Z,94736.08
2017-09-02T09:45:03.629Z,94724.28
2017-09-02T09:47:31.178Z,94720.13
2017-09-02T09:49:58.758Z,94730.62
2017-09-02T09:52:26.336Z,94725.42
2017-09-02T09:54:53.921Z,94722.00
2017-09-02T09:57:21.434Z,94716.44
2017-09-02T09:59:48.949Z,94715.29
2017-09-02T10:02:17.190Z,94707.28
2017-09-02T10:04:44.858Z,94711.23
2017-09-02T10:07:12.376Z,94705.25
2017-09-02T10:09:39.968Z,94697.25
2017-09-02T10:12:07.513Z,94688.19
2017-09-02T10:14:35.066Z,94699.27
2017-09-02T10:17:02.853Z,94698.48
2017-09-02T10:19:30.381Z,94698.41
2017-09-02T10:21:57.923Z,94689.45
2017-09-02T10:24:25.493Z,94685.78
2017-09-02T10:26:53.153Z,94672.87
2017-09-02T10:29:20.974Z,94678.98
2017-09-02T10:31:48.531Z,94672.54
2017-09-02T10:34:16.143Z,94664.01
2017-09-02T10:36:43.714Z,94668.48
2017-09-02T10:39:11.242Z,94673.70
2017-09-02T10:41:38.826Z,94662.88
2017-09-02T10:44:06.401Z,94657.87
2017-09-02T10:46:33.940Z,94661.88
2017-09-02T10:49:01.520Z,94663.25
2017-09-02T10:51:29.111Z,94655.02
2017-09-02T10:53:56.990Z,94652.73
2017-09-02T10:56:24.606Z,94644.45
2017-09-02T10:58:52.188Z,94625.47
2017-09-02T11:01:19.792Z,94638.15
2017-09-02T11:03:48.213Z,94634.09
2017-09-02T11:06:16.851Z,94630.42
2017-09-02T11:08:45.243Z,94606.84
2017-09-02T11:11:13.499Z,94620.25
2017-09-02T11:13:41.298Z,94614.30
2017-09-02T11:16:08.968Z,94608.54
2017-09-02T11:18:40.058Z,94602.47
2017-09-02T11:21:07.641Z,94593.05
2017-09-02T11:23:35.215Z,94590.94
2017-09-02T11:26:02.774Z,94575.17
2017-09-02T11:28:30.337Z,94576.41
2017-09-02T11:30:57.862Z,94571.97
2017-09-02T11:33:25.470Z,94577.17
2017-09-02T11:35:53.035Z,94569.54
2017-09-02T11:38:20.553Z,94565.77
2017-09-02T11:40:48.325Z,94567.14
2017-09-02T11:43:15.906Z,94567.95
2017-09-02T11:45:43.544Z,94555.80
2017-09-02T11:48:11.252Z,94562.03
2017-09-02T11:50:38.800Z,94549.65
2017-09-02T11:53:09.099Z,94550.60
2017-09-02T11:55:36.735Z,94541.15
2017-09-02T11:58:04.278Z,94545.25
2017-09-02T12:00:31.834Z,94535.34
2017-09-02T12:02:59.374Z,94548.99
2017-09-02T12:05:27.341Z,94540.55
2017-09-02T12:07:54.958Z,94538.23
2017-09-02T12:10:22.574Z,94532.25
2017-09-02T12:12:50.143Z,94534.31
2017-09-02T12:15:18.441Z,94535.01
2017-09-02T12:17:46.436Z,94522.47
2017-09-02T12:20:13.946Z,94522.41
2017-09-02T12:22:41.823Z,94520.84
2017-09-02T12:25:09.405Z,94509.50
2017-09-02T12:27:36.968Z,94514.92
2017-09-02T12:30:04.554Z,94526.54
2017-09-02T12:32:32.153Z,94524.83
2017-09-02T12:34:59.753Z,94525.30
2017-09-02T12:37:29.164Z,94513.56
2017-09-02T12:39:56.875Z,94511.19
2017-09-02T12:42:24.445Z,94511.70
2017-09-02T12:44:52.191Z,94509.21
2017-09-02T12:47:19.850Z,94511.01
2017-09-02T12:49:47.794Z,94509.82
2017-09-02T12:52:15.386Z,94505.81
2017-09-02T12:54:43.053Z,94492.38
2017-09-02T12:57:11.014Z,94497.22
2017-09-02T12:59:38.649Z,94495.07
2017-09-02T13:02:06.758Z,94489.29
2017-09-02T13:04:36.997Z,94478.73
2017-09-02T13:07:04.570Z,94483.52
2017-09-02T13:09:32.136Z,94479.07
2017-09-02T13:11:59.729Z,94484.88
2017-09-02T13:14:27.441Z,94480.75
2017-09-02T13:16:57.981Z,94464.12
2017-09-02T13:19:30.875Z,94477.59
2017-09-02T13:21:58.429Z,94474.19
2017-09-02T13:24:26.065Z,94478.08
2017-09-02T13:26:53.663Z,94483.10
2017-09-02T13:29:21.349Z,94485.22
2017-09-02T13:31:51.382Z,94471.41
2017-09-02T13:34:19.210Z,94481.97
2017-09-02T13:36:47.929Z,94482.08
2017-09-02T13:39:15.513Z,94477.44
2017-09-02T13:41:43.079Z,94482.11
2017-09-02T13:44:10.660Z,94477.81
2017-09-02T13:46:38.273Z,94476.19
2017-09-02T13:49:06.510Z,94477.95
2017-09-02T13:51:34.111Z,94472.61
2017-09-02T13:54:01.669Z,94472.70
2017-09-02T13:56:29.306Z,94470.84
2017-09-02T13:58:56.977Z,94471.12
2017-09-02T14:01:24.553Z,94462.97
2017-09-02T14:03:52.253Z,94458.60
2017-09-02T14:06:19.780Z,94457.88
2017-09-02T14:08:47.484Z,94457.27
2017-09-02T14:11:16.279Z,94457.58
2017-09-02T14:13:44.177Z,94449.70
2017-09-02T14:16:11.745Z,94446.39
2017-09-02T14:18:39.316Z,94443.34
2017-09-02T14:21:06.899Z,94446.83
2017-09-02T14:23:34.410Z,94438.44
2017-09-02T14:26:01.945Z,94439.92
2017-09-02T14:28:29.536Z,94439.85
2017-09-02T14:30:57.118Z,94437.56
2017-09-02T14:33:24.671Z,94435.78
2017-09-02T14:35:52.285Z,94438.83
2017-09-02T14:38:19.798Z,94437.33
2017-09-02T14:40:47.423Z,94440.25
2017-09-02T14:43:15.013Z,94438.30
2017-09-02T14:45:42.530Z,94424.34
2017-09-02T14:48:10.108Z,94430.44
2017-09-02T14:50:37.637Z,94429.09
2017-09-02T14:53:05.322Z,94429.59
2017-09-02T14:55:32.856Z,94430.03
2017-09-02T15:00:34.173Z,94421.84
2017-09-02T15:03:01.747Z,94419.82
2017-09-02T15:05:29.309Z,94412.08
2017-09-02T15:07:56.841Z,94419.77
2017-09-02T15:10:24.398Z,94418.16
2017-09-02T15:12:52.057Z,94424.14
2017-09-02T15:15:19.605Z,94422.34
2017-09-02T15:17:47.248Z,94426.44
2017-09-02T15:20:14.849Z,94425.16
2017-09-02T15:22:42.417Z,94420.00
2017-09-02T15:25:10.176Z,94409.09
2017-09-02T15:27:37.731Z,94420.23
2017-09-02T15:30:05.385Z,94422.33
2017-09-02T15:32:33.077Z,94406.69
2017-09-02T15:35:00.650Z,94404.80
2017-09-02T15:37:28.172Z,94417.22
2017-09-02T15:39:55.693Z,94417.95
2017-09-02T15:42:23.245Z,94426.20
2017-09-02T15:44:50.797Z,94427.62
2017-09-02T15:47:18.360Z,94420.63
2017-09-02T15:49:45.892Z,94423.15
2017-09-02T15:52:13.402Z,94415.49
2017-09-02T15:54:40.986Z,94410.67
2017-09-02T15:57:08.512Z,94418.25
2017-09-02T15:59:36.261Z,94407.75
2017-09-02T16:02:03.820Z,94404.58
2017-09-02T16:04:31.329Z,94401.39
2017-09-02T16:06:58.975Z,94407.16
2017-09-02T16:09:26.535Z,94407.66
2017-09-02T16:11:54.070Z,94417.09
2017-09-02T16:14:21.651Z,94413.14
2017-09-02T16:16:49.183Z,94415.47
2017-09-02T16:19:16.829Z,94415.27
2017-09-02T16:21:44.378Z,94424.41
2017-09-02T16:24:11.898Z,94421.42
2017-09-02T16:26:39.446Z,94433.14
2017-09-02T16:29:07.042Z,94431.28
2017-09-02T16:31:34.699Z,94429.80
2017-09-02T16:34:02.300Z,94430.99
2017-09-02T16:36:29.949Z,94433.14
2017-09-02T16:38:57.489Z,94431.80
2017-09-02T16:41:25.084Z,94428.06
2017-09-02T16:43:52.609Z,94426.35
2017-09-02T16:46:20.185Z,94426.20
2017-09-02T16:48:47.719Z,94420.25
2017-09-02T16:51:15.299Z,94420.78
2017-09-02T16:53:42.912Z,94412.80
2017-09-02T16:56:10.505Z,94420.55
2017-09-02T16:58:38.054Z,94423.85
2017-09-02T17:01:05.691Z,94421.62
2017-09-02T17:03:33.249Z,94424.75
2017-09-02T17:06:00.974Z,94422.14
2017-09-02T17:08:28.501Z,94428.87
2017-09-02T17:10:56.036Z,94424.28
2017-09-02T17:13:23.627Z,94418.83
2017-09-02T17:15:51.164Z,94414.69
2017-09-02T17:18:18.690Z,94418.69
2017-09-02T17:20:46.274Z,94421.15
2017-09-02T17:23:13.829Z,94428.09
2017-09-02T17:25:41.475Z,94423.03
2017-09-02T17:28:09.001Z,94423.38
2017-09-02T17:30:36.633Z,94428.80
2017-09-02T17:33:04.218Z,94430.34
2017-09-02T17:35:31.795Z,94429.50
2017-09-02T17:37:59.325Z,94436.02
2017-09-02T17:40:26.853Z,94433.03
2017-09-02T17:42:54.413Z,94440.41
2017-09-02T17:45:22.009Z,94439.23
2017-09-02T17:47:49.524Z,94445.00
2017-09-02T17:50:17.201Z,94457.71
2017-09-02T17:52:44.846Z,94454.52
2017-09-02T17:55:12.417Z,94452.11
2017-09-02T17:57:39.977Z,94459.97
2017-09-02T18:00:07.581Z,94454.16
2017-09-02T18:02:35.178Z,94463.17
2017-09-02T18:05:02.700Z,94465.84
2017-09-02T18:07:30.261Z,94458.35
2017-09-02T18:09:57.822Z,94475.46
2017-09-02T18:12:25.371Z,94488.27
2017-09-02T18:14:52.962Z,94482.27
2017-09-02T18:17:20.497Z,94480.55
2017-09-02T18:19:48.021Z,94480.38
2017-09-02T18:22:15.589Z,94476.33
2017-09-02T18:24:43.284Z,94484.28
2017-09-02T18:27:10.812Z,94482.95
2017-09-02T18:29:38.362Z,94484.72
2017-09-02T18:32:05.915Z,94491.28
2017-09-02T18:34:33.467Z,94498.48
2017-09-02T18:37:01.009Z,94491.86
2017-09-02T18:39:28.578Z,94496.95
2017-09-02T18:41:56.093Z,94501.20
2017-09-02T18:44:23.606Z,94494.22
2017-09-02T18:46:51.179Z,94495.70
2017-09-02T18:49:18.720Z,94500.61
2017-09-02T18:51:46.317Z,94498.75
2017-09-02T18:54:13.949Z,94499.00
2017-09-02T18:56:41.473Z,94497.47
2017-09-02T18:59:09.023Z,94493.95
2017-09-02T19:01:36.586Z,94495.34
2017-09-02T19:04:04.134Z,94494.52
2017-09-02T19:06:31.657Z,94486.94
2017-09-02T19:08:59.593Z,94489.66
2017-09-02T19:11:27.105Z,94494.47
2017-09-02T19:13:54.633Z,94485.19
2017-09-02T19:16:22.205Z,94474.58
2017-09-02T19:18:49.771Z,94490.34
2017-09-02T19:21:17.405Z,94497.30
2017-09-02T19:23:45.068Z,94493.95
2017-09-02T19:26:12.577Z,94488.14
2017-09-02T19:28:40.086Z,94476.59
2017-09-02T19:31:07.660Z,94480.50
2017-09-02T19:33:35.242Z,94489.65
2017-09-02T19:36:02.869Z,94483.36
2017-09-02T19:38:30.441Z,94477.31
2017-09-02T19:40:58.023Z,94478.16
2017-09-02T19:43:25.619Z,94492.02
2017-09-02T19:45:53.213Z,94479.39
2017-09-02T19:48:20.758Z,94484.34
2017-09-02T19:50:48.295Z,94486.26
2017-09-02T19:53:16.607Z,94484.50
2017-09-02T19:55:44.134Z,94489.78
2017-09-02T19:58:11.818Z,94485.16
2017-09-02T20:00:39.448Z,94491.67
2017-09-02T20:03:07.062Z,94486.39
2017-09-02T20:05:34.585Z,94487.97
2017-09-02T20:08:03.934Z,94470.62
2017-09-02T20:10:31.482Z,94485.91
2017-09-02T20:12:59.057Z,94474.87
2017-09-02T20:15:26.573Z,94480.83
2017-09-02T20:17:54.076Z,94481.00
2017-09-02T20:20:21.702Z,94481.38
2017-09-02T20:22:49.205Z,94480.58
2017-09-02T20:25:17.043Z,94480.15
2017-09-02T20:27:44.718Z,94477.16
2017-09-02T20:30:12.252Z,94476.78
2017-09-02T20:32:39.808Z,94479.67
2017-09-02T20:35:07.686Z,94470.87
2017-09-02T20:37:35.202Z,94469.86
2017-09-02T20:40:03.654Z,94466.52
2017-09-02T20:42:31.189Z,94459.01
2017-09-02T20:44:58.853Z,94463.91
2017-09-02T20:47:26.387Z,94454.83
2017-09-02T20:49:53.924Z,94452.59
2017-09-02T20:52:22.551Z,94453.02
2017-09-02T20:54:50.057Z,94457.67
2017-09-02T20:57:17.773Z,94458.00
2017-09-02T20:59:45.325Z,94456.87
2017-09-02T21:02:12.959Z,94458.42
2017-09-02T21:04:40.501Z,94461.89
2017-09-02T21:07:08.065Z,94464.18
2017-09-02T21:09:35.750Z,94458.75
2017-09-02T21:12:03.262Z,94460.66
2017-09-02T21:14:30.833Z,94454.05
2017-09-02T21:16:58.503Z,94450.52
2017-09-02T21:19:26.108Z,94448.62
2017-09-02T21:21:53.649Z,94447.86
2017-09-02T21:24:21.201Z,94445.47
2017-09-02T21:26:49.298Z,94432.38
2017-09-02T21:29:17.053Z,94440.30
2017-09-02T21:31:44.875Z,94430.29
2017-09-02T21:34:12.446Z,94434.14
2017-09-02T21:36:39.962Z,94437.53
2017-09-02T21:39:07.946Z,94437.53
2017-09-02T21:41:35.504Z,94422.20
2017-09-02T21:44:03.277Z,94437.00
2017-09-02T21:46:30.802Z,94428.05
2017-09-02T21:48:58.371Z,94425.02
2017-09-02T21:51:25.924Z,94421.77
2017-09-02T21:53:53.448Z,94429.43
2017-09-02T21:56:20.954Z,94436.05
2017-09-02T21:58:48.553Z,94440.61
2017-09-02T22:01:16.104Z,94429.73
2017-09-02T22:03:43.681Z,94427.59
2017-09-02T22:06:11.196Z,94423.30
2017-09-02T22:08:38.704Z,94429.67
2017-09-02T22:11:06.363Z,94425.73
2017-09-02T22:13:33.934Z,94411.08
2017-09-02T22:16:01.440Z,94412.55
2017-09-02T22:18:28.957Z,94408.38
2017-09-02T22:20:56.548Z,94411.69
2017-09-02T22:23:24.072Z,94403.59
2017-09-02T22:25:51.622Z,94407.94
2017-09-02T22:28:19.255Z,94411.83
2017-09-02T22:30:47.080Z,94421.27
2017-09-02T22:33:14.868Z,94417.00
2017-09-02T22:35:42.391Z,94418.44
2017-09-02T22:38:09.905Z,94404.82
2017-09-02T22:40:37.533Z,94388.36
2017-09-02T22:43:05.085Z,94393.42
2017-09-02T22:45:33.005Z,94391.33
2017-09-02T22:48:00.597Z,94394.47
2017-09-02T22:50:28.157Z,94396.70
2017-09-02T22:52:55.676Z,94387.77
2017-09-02T22:55:23.326Z,94381.53
2017-09-02T22:57:50.930Z,94374.77
2017-09-02T23:00:18.453Z,94372.91
2017-09-02T23:02:46.259Z,94367.31
2017-09-02T23:05:13.815Z,94375.30
2017-09-02T23:07:41.482Z,94368.55
2017-09-02T23:10:09.029Z,94371.16
2017-09-02T23:12:36.586Z,94363.97
2017-09-02T23:15:04.085Z,94365.50
2017-09-02T23:17:31.635Z,94366.53
2017-09-02T23:19:59.246Z,94365.02
2017-09-02T23:22:27.044Z,94359.45
2017-09-02T23:24:54.612Z,94355.03
2017-09-02T23:27:22.276Z,94357.59
2017-09-02T23:29:49.820Z,94362.31
2017-09-02T23:32:17.469Z,94358.48
2017-09-02T23:34:44.981Z,94361.48
2017-09-02T23:37:12.527Z,94368.22
2017-09-02T23:39:40.046Z,94374.13
2017-09-02T23:42:07.694Z,94378.17
2017-09-02T23:44:35.547Z,94380.79
2017-09-02T23:47:03.146Z,94382.06
2017-09-02T23:49:30.717Z,94375.36
2017-09-02T23:51:58.326Z,94377.88
2017-09-02T23:54:25.936Z,94374.23
2017-09-02T23:56:53.434Z,94378.92
2017-09-02T23:59:20.958Z,94381.00
